Time;durP1;ratioP1;P1;durP2;ratioP2;P2;SDS_P1;SDS_P2;PMS_P1;PMS_P2;Temp;Humidity;BMP_temperature;BMP_pressure;BME280_temperature;BME280_humidity;BME280_pressure;Samples;Min_cycle;Max_cycle;Signal;HPM_P1;HPM_P2
2022/01/23 00:00:31;;;;;;;23.55;18.40;;;;;;;5.37;88.17;102525.78;5002592;28;20385;-78
2022/01/23 00:03:35;;;;;;;24.98;19.20;;;;;;;5.30;88.44;102531.84;4997039;28;20048;-78
2022/01/23 00:06:39;;;;;;;26.92;18.35;;;;;;;5.35;88.59;102538.75;5014417;28;20045;-77
2022/01/23 00:09:43;;;;;;;24.85;17.95;;;;;;;5.33;88.78;102539.63;5014241;28;20049;-77
2022/01/23 00:12:51;;;;;;;25.48;17.23;;;;;;;5.27;88.79;102532.69;5015023;28;20092;-77
2022/01/23 00:19:17;;;;;;;29.63;22.38;;;;;;;5.15;89.20;102524.03;4987595;28;20102;-78
2022/01/23 00:22:22;;;;;;;;;;;;;;;5.16;89.93;102523.16;4990137;28;20261;-78
2022/01/23 00:32:11;;;;;;;29.95;23.63;;;;;;;5.29;88.83;102514.53;4991467;28;20089;-78
2022/01/23 00:35:14;;;;;;;;;;;;;;;5.29;88.63;102512.78;4997580;28;20063;-78
2022/01/23 00:38:18;;;;;;;33.22;25.45;;;;;;;5.13;89.40;102509.31;4986375;28;19971;-78
2022/01/23 00:41:22;;;;;;;36.05;27.50;;;;;;;5.16;89.74;102521.41;4997739;28;20139;-78
2022/01/23 00:44:27;;;;;;;36.13;26.10;;;;;;;5.18;89.37;102518.84;4969328;28;20057;-78
2022/01/23 00:47:32;;;;;;;41.85;30.38;;;;;;;5.06;89.58;102520.53;4987390;28;20048;-78
2022/01/23 00:50:38;;;;;;;41.65;32.05;;;;;;;5.17;89.38;102527.47;5010016;28;20138;-78
2022/01/23 00:53:41;;;;;;;35.17;26.92;;;;;;;5.01;90.23;102524.88;4997520;28;20127;-78
2022/01/23 00:56:45;;;;;;;41.08;29.55;;;;;;;5.12;89.84;102522.28;4955175;28;20535;-78
2022/01/23 00:59:48;;;;;;;;;;;;;;;5.00;90.50;102502.38;4977992;28;20124;-78
2022/01/23 01:02:51;;;;;;;40.92;30.10;;;;;;;4.93;90.64;102518.78;4977226;28;20290;-78
2022/01/23 01:05:55;;;;;;;;;;;;;;;4.89;90.60;102512.72;4978977;28;20057;-78
2022/01/23 01:09:03;;;;;;;39.35;29.75;;;;;;;4.95;90.75;102518.81;4978371;28;19971;-78
2022/01/23 01:12:09;;;;;;;43.28;30.48;;;;;;;4.84;90.70;102518.75;4995525;28;20088;-77
2022/01/23 01:31:58;;;;;;;43.60;31.67;;;;;;;5.14;89.01;102492.03;4968733;28;20045;-78
2022/01/23 01:35:14;;;;;;;44.10;32.42;;;;;;;5.10;89.25;102492.88;4968894;28;20097;-78
2022/01/23 01:38:20;;;;;;;45.80;33.50;;;;;;;4.93;89.83;102502.38;4976451;28;20135;-78
2022/01/23 01:41:26;;;;;;;44.08;32.55;;;;;;;5.03;89.81;102499.78;4976092;28;20570;-78
2022/01/23 01:44:30;;;;;;;42.15;32.80;;;;;;;5.02;89.50;102502.38;4954383;28;20117;-78
2022/01/23 01:47:54;;;;;;;41.08;30.58;;;;;;;5.08;89.91;102497.22;4989201;28;20061;-77
2022/01/23 01:51:00;;;;;;;41.65;31.70;;;;;;;4.90;89.65;102498.03;4977767;28;20557;-78
2022/01/23 01:54:13;;;;;;;39.75;29.42;;;;;;;5.06;89.64;102509.31;4977627;28;20612;-78
2022/01/23 01:57:16;;;;;;;34.00;27.30;;;;;;;5.14;89.27;102510.19;4976783;28;20399;-78
2022/01/23 02:00:58;;;;;;;35.75;28.95;;;;;;;5.24;88.85;102508.50;4962026;28;20049;-78
2022/01/23 02:10:52;;;;;;;36.78;26.35;;;;;;;5.21;88.58;102534.41;4992037;28;20172;-78
2022/01/23 02:14:10;;;;;;;34.78;28.25;;;;;;;5.22;88.33;102525.75;4996334;28;20053;-76
2022/01/23 02:17:55;;;;;;;33.00;27.27;;;;;;;5.24;88.55;102526.66;4984894;28;20108;-76
2022/01/23 02:25:17;;;;;;;38.33;29.20;;;;;;;5.11;88.95;102523.16;4987260;28;20068;-76
2022/01/23 02:50:48;;;;;;;41.35;30.45;;;;;;;4.71;89.71;102523.00;4956159;28;20540;-76
2022/01/23 02:54:08;;;;;;;39.20;31.25;;;;;;;4.58;90.21;102518.66;4974731;28;20196;-76
2022/01/23 02:57:20;;;;;;;49.75;34.55;;;;;;;4.25;91.17;102512.44;4968411;28;20053;-76
2022/01/23 03:00:31;;;;;;;46.78;32.83;;;;;;;4.50;90.81;102515.13;4945112;28;20045;-77
2022/01/23 03:03:44;;;;;;;43.83;32.45;;;;;;;4.39;91.21;102521.13;4968235;28;20049;-76
2022/01/23 03:10:28;;;;;;;43.60;32.30;;;;;;;4.57;90.37;102524.69;4986948;28;20096;-77
2022/01/23 03:13:55;;;;;;;39.22;30.58;;;;;;;4.70;89.94;102523.88;4982266;28;20101;-76
2022/01/23 03:30:23;;;;;;;41.97;30.67;;;;;;;4.42;90.69;102491.81;4995392;28;20046;-76
2022/01/23 03:33:27;;;;;;;41.03;30.98;;;;;;;4.53;90.43;102477.19;4995590;28;20133;-77
2022/01/23 03:36:31;;;;;;;43.30;30.92;;;;;;;4.61;90.37;102485.84;4988307;28;20049;-77
2022/01/23 03:39:34;;;;;;;36.78;27.60;;;;;;;4.68;89.99;102473.78;5015231;28;20100;-77
2022/01/23 03:42:41;;;;;;;36.42;29.20;;;;;;;4.88;89.15;102479.00;4991216;28;20048;-77
2022/01/23 03:46:19;;;;;;;38.50;28.38;;;;;;;4.76;89.32;102490.22;4991850;28;20048;-77
2022/01/23 03:49:35;;;;;;;42.80;31.13;;;;;;;4.67;89.21;102479.81;4991510;28;20411;-77
2022/01/23 03:52:47;;;;;;;41.78;29.95;;;;;;;4.51;90.39;102485.81;5005638;28;20525;-77
2022/01/23 03:55:51;;;;;;;39.03;29.50;;;;;;;4.54;90.03;102498.78;5002981;28;20145;-77
2022/01/23 03:58:55;;;;;;;37.55;27.80;;;;;;;4.74;89.83;102499.69;4991795;28;20044;-77
2022/01/23 04:01:58;;;;;;;36.83;27.83;;;;;;;4.81;88.88;102498.00;5014531;28;20061;-77
2022/01/23 04:05:02;;;;;;;38.33;28.35;;;;;;;4.88;88.72;102502.34;5003056;28;20049;-77
2022/01/23 04:08:07;;;;;;;33.35;24.23;;;;;;;4.90;88.29;102503.22;4981272;28;20071;-77
2022/01/23 04:11:10;;;;;;;36.13;25.38;;;;;;;4.86;88.20;102512.72;4991528;28;20111;-77
2022/01/23 04:14:16;;;;;;;36.15;27.27;;;;;;;4.96;87.92;102508.41;5013940;28;20086;-77
2022/01/23 04:20:52;;;;;;;34.22;25.08;;;;;;;4.94;88.28;102519.63;4991074;28;20096;-77
2022/01/23 04:59:34;;;;;;;41.58;27.25;;;;;;;4.92;88.48;102534.34;4981449;28;20359;-77
2022/01/23 05:01:01;;;;;;;38.47;25.67;;;;;;;4.47;90.41;102543.63;4981901;28;20149;-77
2022/01/23 05:04:16;;;;;;;34.60;24.67;;;;;;;4.40;90.59;102545.31;4981794;28;20053;-77
2022/01/23 05:07:40;;;;;;;31.13;23.48;;;;;;;4.55;90.26;102552.31;4985636;28;20061;-77
2022/01/23 05:11:04;;;;;;;31.25;23.70;;;;;;;4.55;89.51;102549.72;5008415;28;20144;-77
2022/01/23 05:14:35;;;;;;;35.30;24.52;;;;;;;4.46;90.04;102549.66;5001007;28;20588;-77
2022/01/23 05:17:39;;;;;;;36.13;26.15;;;;;;;4.41;90.34;102550.50;5000543;28;20057;-77
2022/01/23 05:20:44;;;;;;;;;;;;;;;4.42;90.55;102553.97;5001985;28;20522;-77
2022/01/23 05:23:47;;;;;;;40.35;25.30;;;;;;;4.32;90.80;102550.47;5012615;28;19968;-77
2022/01/23 05:26:50;;;;;;;;;;;;;;;4.33;90.33;102548.72;5013816;28;20061;-77
2022/01/23 05:29:55;;;;;;;32.00;23.10;;;;;;;4.42;90.44;102552.25;5012972;28;19924;-77
2022/01/23 05:33:00;;;;;;;37.95;26.75;;;;;;;4.52;90.54;102553.16;5013483;28;20041;-77
2022/01/23 05:36:05;;;;;;;34.92;25.85;;;;;;;4.56;90.11;102546.25;4999024;28;20053;-77
2022/01/23 05:39:09;;;;;;;33.60;24.48;;;;;;;4.63;89.72;102541.13;4981670;28;20068;-77
2022/01/23 05:42:12;;;;;;;30.15;24.58;;;;;;;4.84;88.81;102545.53;4970369;28;20041;-77
2022/01/23 05:45:17;;;;;;;32.08;24.05;;;;;;;4.79;88.67;102552.44;5003638;28;20108;-77
2022/01/23 05:48:55;;;;;;;29.98;24.05;;;;;;;4.63;89.21;102548.03;4953787;28;20550;-77
2022/01/23 05:52:24;;;;;;;31.23;24.88;;;;;;;4.78;88.79;102549.81;4993440;28;20188;-77
2022/01/23 05:55:37;;;;;;;32.00;23.42;;;;;;;4.87;88.36;102550.72;4970930;28;20108;-77
2022/01/23 05:58:54;;;;;;;38.08;24.90;;;;;;;4.96;88.05;102549.03;4993402;28;20101;-77
2022/01/23 06:02:01;;;;;;;30.48;23.52;;;;;;;4.93;87.55;102559.41;5003717;28;20045;-78
2022/01/23 06:05:10;;;;;;;31.15;23.77;;;;;;;4.85;87.64;102554.16;4992265;28;20049;-77
2022/01/23 06:08:28;;;;;;;30.98;24.55;;;;;;;4.92;87.97;102552.50;4991027;28;20045;-77
2022/01/23 06:11:31;;;;;;;;;;;;;;;4.79;87.62;102560.22;5009623;28;20133;-77
2022/01/23 06:14:35;;;;;;;36.40;24.75;;;;;;;4.57;88.56;102560.97;5000337;28;20429;-77
2022/01/23 06:17:38;;;;;;;34.78;23.17;;;;;;;4.63;88.68;102555.81;5010424;28;20061;-77
2022/01/23 06:21:00;;;;;;;36.22;23.20;;;;;;;4.43;89.07;102559.19;5012299;28;20111;-77
2022/01/23 06:24:33;;;;;;;32.92;23.80;;;;;;;4.55;89.44;102557.50;5012437;28;20378;-77
2022/01/23 06:28:06;;;;;;;34.53;24.98;;;;;;;4.66;89.03;102561.03;5004292;28;20049;-77
2022/01/23 06:31:09;;;;;;;31.98;25.25;;;;;;;4.72;88.95;102550.66;5011323;28;20064;-77
2022/01/23 06:34:15;;;;;;;35.83;26.90;;;;;;;4.52;89.44;102552.28;5011387;28;20045;-77
2022/01/23 06:37:19;;;;;;;32.80;25.15;;;;;;;4.57;89.27;102561.84;5010397;28;20101;-77
2022/01/23 06:40:22;;;;;;;;;;;;;;;4.38;89.90;102557.41;5002707;28;20041;-77
2022/01/23 06:44:01;;;;;;;37.58;26.90;;;;;;;4.34;90.76;102568.59;4960899;28;19952;-78
2022/01/23 06:47:12;;;;;;;39.90;26.23;;;;;;;4.23;90.60;102559.91;5000860;28;20052;-78
2022/01/23 06:50:15;;;;;;;;;;;;;;;4.22;90.36;102571.97;5011162;28;20117;-77
2022/01/23 06:53:19;;;;;;;34.25;26.48;;;;;;;4.44;89.96;102583.34;5011509;28;19920;-77
2022/01/23 06:56:23;;;;;;;37.53;26.67;;;;;;;4.41;89.78;102570.38;4970972;28;20050;-77
2022/01/23 06:59:27;;;;;;;36.63;24.25;;;;;;;4.31;89.55;102572.03;4972080;28;20105;-77
2022/01/23 07:02:44;;;;;;;33.10;25.17;;;;;;;4.19;89.95;102579.72;4982529;28;20045;-78
2022/01/23 07:06:21;;;;;;;33.90;24.92;;;;;;;4.30;89.45;102583.25;4955074;28;20483;-78
2022/01/23 07:09:45;;;;;;;35.70;24.98;;;;;;;4.09;90.72;102591.75;4971748;28;20149;-78
2022/01/23 07:13:04;;;;;;;37.05;26.13;;;;;;;4.10;90.92;102600.38;5001384;28;20056;-78
2022/01/23 07:16:22;;;;;;;34.25;24.42;;;;;;;4.12;90.88;102603.84;4989870;28;20142;-78
2022/01/23 07:19:44;;;;;;;39.13;28.17;;;;;;;4.14;90.57;102604.69;5009867;28;20448;-78
2022/01/23 07:22:47;;;;;;;32.92;25.77;;;;;;;4.19;90.06;102616.84;4999781;28;20481;-78
2022/01/23 07:25:51;;;;;;;35.20;25.52;;;;;;;4.26;89.86;102611.72;4988131;28;20048;-78
2022/01/23 07:28:58;;;;;;;34.88;24.98;;;;;;;4.31;89.57;102620.38;4999397;28;20041;-78
2022/01/23 07:32:08;;;;;;;33.30;25.70;;;;;;;4.21;89.72;102624.59;4999355;28;20108;-78
2022/01/23 07:35:17;;;;;;;36.15;27.25;;;;;;;4.35;88.95;102628.19;5010234;28;20150;-78
2022/01/23 07:38:49;;;;;;;34.90;25.48;;;;;;;4.35;88.70;102623.00;4984013;28;20046;-78
2022/01/23 07:42:18;;;;;;;34.60;24.08;;;;;;;4.34;88.48;102618.69;4979501;28;20061;-76
2022/01/23 07:45:45;;;;;;;33.15;25.25;;;;;;;4.38;88.52;102622.16;4952922;28;20134;-76
2022/01/23 07:49:12;;;;;;;34.58;25.73;;;;;;;4.40;88.32;102626.50;4969630;28;20049;-77
2022/01/23 07:58:21;;;;;;;34.47;24.25;;;;;;;4.57;88.83;102630.91;5047936;28;20057;-62
2022/01/23 08:01:43;;;;;;;40.03;26.70;;;;;;;4.47;88.58;102631.69;5039051;28;20051;-63
2022/01/23 08:05:06;;;;;;;36.70;27.92;;;;;;;4.27;89.87;102639.31;5045593;28;20102;-63
2022/01/23 08:08:10;;;;;;;37.45;27.00;;;;;;;4.55;89.48;102640.41;5029359;28;20056;-63
2022/01/23 08:11:26;;;;;;;37.20;27.58;;;;;;;4.62;88.77;102645.63;5007545;28;20088;-63
2022/01/23 08:14:34;;;;;;;34.67;24.25;;;;;;;4.77;88.24;102650.03;5022020;28;20091;-62
2022/01/23 08:17:38;;;;;;;;;;;;;;;4.83;87.82;102657.00;5023252;28;20118;-62
2022/01/23 08:20:42;;;;;;;72.63;52.60;;;;;;;4.89;87.49;102659.63;5022093;28;19956;-63
2022/01/23 08:23:45;;;;;;;54.03;38.05;;;;;;;4.93;86.92;102663.09;5041527;28;20639;-63
2022/01/23 08:26:48;;;;;;;36.95;30.17;;;;;;;4.93;87.12;102661.34;5050231;28;20059;-62
2022/01/23 08:32:56;;;;;;;34.45;21.52;;;;;;;4.93;87.39;102657.91;5047710;28;20052;-67
2022/01/23 08:42:16;;;;;;;37.38;28.17;;;;;;;4.75;87.89;102656.94;5051618;28;20485;-62
2022/01/23 08:48:21;;;;;;;31.00;24.25;;;;;;;4.95;87.07;102662.25;5046405;28;20497;-75
2022/01/23 08:51:24;;;;;;;33.63;24.45;;;;;;;5.05;86.78;102665.75;5016068;28;20052;-75
2022/01/23 08:54:29;;;;;;;33.25;25.83;;;;;;;5.05;86.74;102658.84;5030776;28;20103;-75
2022/01/23 08:57:32;;;;;;;35.00;25.08;;;;;;;5.05;86.61;102664.03;5030788;28;20506;-75
2022/01/23 09:00:35;;;;;;;33.53;24.88;;;;;;;5.09;86.50;102662.31;5018608;28;20087;-75
2022/01/23 09:03:39;;;;;;;29.83;23.60;;;;;;;5.13;86.32;102664.03;5031428;28;20106;-75
2022/01/23 09:06:43;;;;;;;;;;;;;;;4.95;87.46;102661.38;5032709;28;20048;-75
2022/01/23 09:09:46;;;;;;;70.10;45.60;;;;;;;4.95;87.70;102657.06;5033378;28;19920;-75
2022/01/23 09:13:04;;;;;;;;;;;;;;;4.99;87.53;102660.53;5019146;28;20080;-74
2022/01/23 09:16:08;;;;;;;52.33;35.22;;;;;;;5.07;87.29;102657.13;5021166;28;20004;-75
2022/01/23 09:27:18;;;;;;;37.65;25.90;;;;;;;4.75;87.63;102659.50;5045872;28;20078;-79
2022/01/23 09:30:22;;;;;;;34.40;24.75;;;;;;;4.60;88.44;102659.44;5073110;28;20047;-79
2022/01/23 09:33:27;;;;;;;36.30;24.95;;;;;;;4.83;87.89;102668.22;5072729;28;20063;-78
2022/01/23 09:36:31;;;;;;;35.00;26.17;;;;;;;4.99;87.21;102668.31;5073129;28;20043;-79
2022/01/23 09:39:35;;;;;;;;;;;;;;;4.95;87.35;102666.56;5073188;28;20071;-79
2022/01/23 09:42:49;;;;;;;;;;;;;;;5.07;86.93;102669.19;5061075;28;19966;-79
2022/01/23 09:45:54;;;;;;;50.67;36.85;;;;;;;5.21;86.85;102675.31;5060149;28;19986;-79
2022/01/23 09:48:58;;;;;;;56.97;42.42;;;;;;;5.32;86.25;102672.78;5042304;28;20118;-79
2022/01/23 09:52:05;;;;;;;34.97;26.80;;;;;;;5.09;87.22;102680.44;5062976;28;20039;-78
2022/01/23 09:55:12;;;;;;;39.83;28.05;;;;;;;5.08;86.84;102674.41;5037491;28;20067;-78
2022/01/23 09:58:16;;;;;;;33.53;26.73;;;;;;;5.14;87.20;102681.34;5072457;28;20079;-78
2022/01/23 10:01:22;;;;;;;32.88;27.55;;;;;;;5.33;86.10;102683.16;5048423;28;20082;-79
2022/01/23 10:04:26;;;;;;;35.42;25.45;;;;;;;5.47;85.76;102690.13;5072413;28;20063;-78
2022/01/23 10:07:30;;;;;;;38.42;29.42;;;;;;;5.45;86.03;102684.91;5059882;28;20563;-79
2022/01/23 10:10:38;;;;;;;32.85;24.33;;;;;;;5.55;85.96;102680.63;5059759;28;20047;-79
2022/01/23 10:13:43;;;;;;;29.67;23.42;;;;;;;5.62;85.46;102682.41;5059171;28;20474;-78
2022/01/23 10:16:47;;;;;;;34.88;25.85;;;;;;;5.66;84.86;102683.28;5072494;28;20054;-79
2022/01/23 10:19:51;;;;;;;33.42;26.80;;;;;;;5.62;84.33;102679.81;5059714;28;20071;-78
2022/01/23 10:22:55;;;;;;;33.08;26.08;;;;;;;5.70;83.63;102678.06;5025682;28;20492;-78
2022/01/23 10:25:59;;;;;;;31.77;25.40;;;;;;;5.77;83.36;102672.03;5021084;28;20071;-79
2022/01/23 10:29:13;;;;;;;37.53;25.48;;;;;;;5.85;82.71;102674.66;5015448;28;20471;-79
2022/01/23 10:32:26;;;;;;;;;;;;;;;5.75;83.02;102673.78;5028059;28;20138;-78
2022/01/23 10:35:51;;;;;;;37.28;29.45;;;;;;;5.69;83.70;102681.56;5027107;28;19970;-79
2022/01/23 10:39:02;;;;;;;39.72;29.45;;;;;;;5.71;83.26;102677.25;5014769;28;20273;-79
2022/01/23 10:49:06;;;;;;;34.88;25.30;;;;;;;6.00;82.23;102668.66;5043235;28;20058;-79
2022/01/23 10:52:29;;;;;;;35.83;27.17;;;;;;;5.85;81.21;102660.81;5029508;28;20406;-79
2022/01/23 10:55:34;;;;;;;52.08;35.80;;;;;;;5.87;81.63;102664.25;5027131;28;20052;-79
2022/01/23 10:58:38;;;;;;;100.57;63.90;;;;;;;5.50;82.17;102661.59;5025968;28;20521;-79
2022/01/23 11:01:58;;;;;;;;;;;;;;;5.54;82.71;102659.00;5027989;28;20048;-79
2022/01/23 11:05:32;;;;;;;34.22;24.77;;;;;;;5.75;81.12;102653.00;5034178;28;19920;-79
2022/01/23 11:08:37;;;;;;;30.08;21.55;;;;;;;5.74;80.17;102653.00;5030634;28;20127;-79
2022/01/23 11:11:47;;;;;;;29.50;21.70;;;;;;;5.76;80.04;102652.13;5019458;28;20112;-79
2022/01/23 11:18:32;;;;;;;;;;;;;;;5.55;79.30;102657.28;5032277;28;20051;-79
2022/01/23 11:21:38;;;;;;;21.92;17.35;;;;;;;5.81;78.05;102644.38;5031258;28;20073;-79
2022/01/23 11:24:44;;;;;;;19.70;15.57;;;;;;;5.81;78.16;102644.38;5018995;28;20072;-79
2022/01/23 11:27:48;;;;;;;89.60;58.03;;;;;;;5.86;78.26;102645.22;5031827;28;20576;-78
2022/01/23 11:30:51;;;;;;;;;;;;;;;5.90;77.55;102635.72;5031906;28;20057;-78
2022/01/23 11:33:56;;;;;;;20.52;17.15;;;;;;;5.87;77.98;102633.09;5031480;28;19966;-78
2022/01/23 11:36:59;;;;;;;21.80;17.10;;;;;;;6.19;77.37;102639.22;5006778;28;20087;-78
2022/01/23 11:40:11;;;;;;;21.20;16.42;;;;;;;6.20;77.62;102634.91;5031246;28;20052;-79
2022/01/23 11:53:47;;;;;;;33.50;23.50;;;;;;;6.11;77.23;102638.34;5042434;28;20098;-79
2022/01/23 11:56:51;;;;;;;35.67;27.27;;;;;;;5.89;78.66;102640.03;5030997;28;20051;-79
2022/01/23 12:00:36;;;;;;;23.63;18.88;;;;;;;5.87;78.81;102635.69;5020363;28;20091;-79
2022/01/23 12:04:11;;;;;;;21.50;17.58;;;;;;;6.21;77.66;102632.28;5031323;28;20040;-79
2022/01/23 12:07:20;;;;;;;19.92;15.43;;;;;;;6.15;77.46;102634.88;5054245;28;20650;-79
2022/01/23 12:10:29;;;;;;;17.50;13.82;;;;;;;6.40;76.96;102611.50;5030675;28;20079;-79
2022/01/23 12:17:00;;;;;;;16.42;14.25;;;;;;;6.61;75.44;102611.47;5049518;28;20039;-79
2022/01/23 12:20:09;;;;;;;17.10;14.30;;;;;;;6.53;77.00;102608.00;5061924;28;20063;-79
2022/01/23 12:23:14;;;;;;;17.92;14.45;;;;;;;6.49;76.00;102603.69;5060345;28;20138;-79
2022/01/23 12:26:44;;;;;;;19.00;15.07;;;;;;;6.18;76.39;102595.06;5026197;28;20048;-79
2022/01/23 12:30:28;;;;;;;16.88;14.52;;;;;;;6.16;76.44;102586.38;5020770;28;20674;-78
2022/01/23 12:33:50;;;;;;;19.10;14.75;;;;;;;6.40;76.45;102581.16;5021871;28;20067;-78
2022/01/23 12:36:55;;;;;;;16.88;13.65;;;;;;;6.48;75.68;102570.78;5032274;28;20076;-78
2022/01/23 12:40:41;;;;;;;17.65;15.05;;;;;;;6.43;75.36;102564.72;5032000;28;20041;-78
2022/01/23 12:43:56;;;;;;;17.05;13.32;;;;;;;6.52;75.37;102569.88;5044763;28;20039;-78
2022/01/23 12:47:02;;;;;;;14.75;13.05;;;;;;;6.58;74.24;102564.69;5047649;28;20102;-79
2022/01/23 12:50:06;;;;;;;15.57;12.65;;;;;;;6.64;73.67;102561.19;5049827;28;20039;-79
2022/01/23 12:53:10;;;;;;;16.50;12.80;;;;;;;6.74;73.72;102563.75;5060645;28;20051;-79
2022/01/23 12:56:17;;;;;;;18.50;13.13;;;;;;;6.63;72.38;102556.84;5038704;28;20110;-79
2022/01/23 12:59:29;;;;;;;14.02;11.77;;;;;;;6.48;72.38;102552.59;5027699;28;20048;-78
2022/01/23 13:02:41;;;;;;;59.30;38.92;;;;;;;6.63;73.38;102559.44;5040551;28;20059;-79
2022/01/23 13:05:48;;;;;;;79.80;52.03;;;;;;;6.59;74.10;102561.19;5036128;28;20140;-79
2022/01/23 13:09:03;;;;;;;46.15;34.25;;;;;;;6.56;72.93;102566.41;5026032;28;20040;-79
2022/01/23 13:30:39;;;;;;;14.68;12.98;;;;;;;6.57;72.35;102578.53;5099688;28;20462;-70
2022/01/23 13:33:24;;;;;;;14.65;11.85;;;;;;;6.75;72.35;102562.88;5104935;28;20181;-70
2022/01/23 13:36:28;;;;;;;15.18;11.63;;;;;;;6.74;71.35;102568.09;5103775;28;20051;-70
2022/01/23 13:39:45;;;;;;;11.88;9.50;;;;;;;6.74;70.61;102565.50;5104425;28;20042;-70
2022/01/23 14:08:56;;;;;;;25.73;19.17;;;;;;;6.75;70.47;102568.06;5035745;28;20048;-79
2022/01/23 14:12:08;;;;;;;14.97;10.17;;;;;;;6.74;70.58;102571.56;5035929;28;20048;-80
2022/01/23 14:15:29;;;;;;;10.52;8.05;;;;;;;6.70;70.43;102569.84;5042973;28;20387;-80
2022/01/23 14:18:36;;;;;;;11.88;8.80;;;;;;;6.71;70.60;102566.38;5044011;28;20052;-80
2022/01/23 14:21:59;;;;;;;9.85;7.90;;;;;;;6.72;70.27;102570.69;4999782;28;20045;-80
2022/01/23 14:25:14;;;;;;;9.82;8.27;;;;;;;6.72;70.37;102568.09;5040612;28;20103;-79
2022/01/23 14:33:20;;;;;;;9.55;7.85;;;;;;;6.67;69.68;102572.44;5025215;28;20037;-79
2022/01/23 14:36:28;;;;;;;9.80;8.05;;;;;;;6.69;69.96;102570.69;5017881;28;20534;-79
2022/01/23 14:39:34;;;;;;;10.20;8.18;;;;;;;6.67;70.28;102575.06;5019567;28;20161;-79
2022/01/23 14:43:02;;;;;;;10.93;8.10;;;;;;;6.68;70.33;102576.78;5030149;28;20491;-80
2022/01/23 14:46:12;;;;;;;11.90;8.63;;;;;;;6.69;71.23;102581.09;5008851;28;20460;-80
2022/01/23 14:49:28;;;;;;;10.25;8.88;;;;;;;6.67;71.63;102577.66;5010466;28;20139;-79
2022/01/23 14:52:33;;;;;;;10.75;9.10;;;;;;;6.57;71.46;102572.47;5010411;28;20401;-79
2022/01/23 14:55:45;;;;;;;10.88;8.80;;;;;;;6.53;71.33;102576.81;5009650;28;20155;-78
2022/01/23 14:58:51;;;;;;;9.25;6.97;;;;;;;6.37;72.01;102569.91;5016566;28;20059;-80
2022/01/23 15:01:59;;;;;;;8.95;7.22;;;;;;;6.31;72.28;102575.13;5010335;28;20539;-80
2022/01/23 15:05:05;;;;;;;9.65;6.82;;;;;;;6.24;72.36;102574.28;5015530;28;20040;-79
2022/01/23 15:08:14;;;;;;;9.38;6.97;;;;;;;6.42;72.79;102565.59;5029959;28;20149;-79
2022/01/23 15:11:18;;;;;;;8.65;6.25;;;;;;;6.33;72.75;102573.41;5042288;28;20052;-80
2022/01/23 15:14:21;;;;;;;;;;;;;;;6.29;72.75;102565.63;5031266;28;20041;-80
2022/01/23 15:17:26;;;;;;;7.55;6.50;;;;;;;6.26;73.44;102562.16;5031371;28;19920;-81
2022/01/23 15:20:35;;;;;;;9.38;5.20;;;;;;;6.22;73.10;102560.41;5030085;28;20056;-79
2022/01/23 15:23:41;;;;;;;9.38;6.40;;;;;;;6.29;73.75;102551.75;5008329;28;20131;-79
2022/01/23 15:26:45;;;;;;;8.55;6.68;;;;;;;6.38;75.19;102556.06;5012239;28;20049;-79
2022/01/23 15:29:48;;;;;;;6.90;5.15;;;;;;;6.23;74.77;102552.63;5030590;28;20099;-79
2022/01/23 15:32:54;;;;;;;7.53;5.50;;;;;;;6.24;73.79;102559.53;5029145;28;20130;-78
2022/01/23 15:35:57;;;;;;;7.13;5.85;;;;;;;6.31;74.79;102559.53;5017658;28;20525;-78
2022/01/23 15:39:01;;;;;;;7.10;5.53;;;;;;;6.33;75.22;102557.81;5029456;28;20112;-78
2022/01/23 15:42:05;;;;;;;8.25;6.00;;;;;;;6.13;73.10;102556.13;5029800;28;20048;-80
2022/01/23 15:45:10;;;;;;;6.45;5.18;;;;;;;6.11;73.59;102560.44;5029328;28;20048;-78
2022/01/23 15:48:13;;;;;;;8.10;4.70;;;;;;;6.06;73.21;102559.56;5030549;28;20507;-79
2022/01/23 15:51:20;;;;;;;11.85;8.60;;;;;;;6.09;75.88;102558.69;5018249;28;20519;-80
2022/01/23 15:54:23;;;;;;;12.35;8.85;;;;;;;6.10;76.14;102563.06;5029901;28;20087;-79
2022/01/23 15:57:27;;;;;;;6.40;4.38;;;;;;;6.07;75.32;102563.91;5029662;28;20056;-80
2022/01/23 16:00:32;;;;;;;;;;;;;;;5.94;75.15;102564.78;5031316;28;20142;-79
2022/01/23 16:03:36;;;;;;;8.15;6.15;;;;;;;5.90;75.12;102568.19;5031134;28;19988;-80
2022/01/23 16:06:41;;;;;;;7.07;4.32;;;;;;;5.86;75.49;102567.34;5029616;28;20048;-81
2022/01/23 16:09:55;;;;;;;11.00;6.57;;;;;;;5.95;77.31;102569.09;5029791;28;20160;-79
2022/01/23 16:13:00;;;;;;;9.10;4.90;;;;;;;5.65;75.55;102572.50;5029133;28;20110;-81
2022/01/23 16:16:08;;;;;;;6.18;4.00;;;;;;;5.60;75.27;102572.53;5027781;28;20039;-81
2022/01/23 16:19:16;;;;;;;6.70;5.20;;;;;;;5.78;75.38;102562.16;5017825;28;20048;-78
2022/01/23 16:22:20;;;;;;;8.10;5.78;;;;;;;5.85;76.66;102569.94;5029799;28;20396;-78
2022/01/23 16:25:37;;;;;;;9.80;5.57;;;;;;;5.90;76.04;102563.88;5029185;28;20043;-78
2022/01/23 16:28:41;;;;;;;6.32;4.53;;;;;;;5.69;75.08;102564.75;5029397;28;20617;-80
2022/01/23 16:31:44;;;;;;;7.57;5.88;;;;;;;5.71;75.52;102563.03;5028755;28;20075;-79
2022/01/23 16:34:48;;;;;;;8.50;6.55;;;;;;;5.49;75.17;102574.25;5028904;28;20047;-79
2022/01/23 16:37:53;;;;;;;7.47;5.72;;;;;;;5.67;77.51;102563.88;5029043;28;20048;-79
2022/01/23 16:40:56;;;;;;;7.10;5.28;;;;;;;5.52;77.42;102561.25;5030267;28;20052;-79
2022/01/23 16:44:00;;;;;;;;;;;;;;;5.65;76.57;102568.22;5030235;28;20179;-79
2022/01/23 16:47:07;;;;;;;10.48;6.70;;;;;;;5.54;76.45;102569.91;5017210;28;20621;-79
2022/01/23 16:50:16;;;;;;;8.88;6.20;;;;;;;5.56;77.10;102570.78;5018882;28;20056;-80
2022/01/23 16:53:19;;;;;;;;;;;;;;;5.44;77.85;102579.41;5028808;28;20458;-79
2022/01/23 16:56:23;;;;;;;22.20;13.90;;;;;;;5.62;77.17;102577.72;5009018;28;19924;-80
2022/01/23 16:59:27;;;;;;;13.40;9.07;;;;;;;5.64;76.71;102581.16;5009012;28;20057;-80
2022/01/23 17:02:31;;;;;;;16.33;10.00;;;;;;;5.55;76.55;102566.44;5010214;28;20051;-79
2022/01/23 17:05:34;;;;;;;9.32;6.32;;;;;;;5.70;77.25;102584.63;5009754;28;20052;-80
2022/01/23 17:08:37;;;;;;;6.97;4.13;;;;;;;5.70;77.55;102582.03;5023948;28;20052;-80
2022/01/23 17:11:40;;;;;;;5.38;3.80;;;;;;;5.70;77.26;102587.22;5027706;28;20123;-80
2022/01/23 17:14:44;;;;;;;6.05;4.68;;;;;;;5.52;76.96;102592.38;5016173;28;20056;-80
2022/01/23 17:17:47;;;;;;;;;;;;;;;5.33;76.57;102576.81;5016458;28;20472;-79
2022/01/23 17:20:51;;;;;;;9.05;5.65;;;;;;;5.37;76.63;102588.06;5028949;28;20063;-80
2022/01/23 17:23:55;;;;;;;8.63;5.18;;;;;;;5.48;76.75;102582.88;5029272;28;20129;-79
2022/01/23 17:26:59;;;;;;;6.80;4.18;;;;;;;5.57;78.31;102575.97;5029470;28;20047;-80
2022/01/23 17:30:04;;;;;;;5.60;3.75;;;;;;;5.55;78.28;102582.00;5029546;28;20122;-80
2022/01/23 17:33:08;;;;;;;11.15;6.88;;;;;;;5.33;78.40;102582.00;5028389;28;20068;-80
2022/01/23 17:36:13;;;;;;;22.90;13.63;;;;;;;5.15;76.93;102576.75;5027734;28;20056;-80
2022/01/23 17:39:27;;;;;;;50.92;28.25;;;;;;;5.31;77.45;102578.53;5028855;28;20052;-80
2022/01/23 17:42:35;;;;;;;35.33;20.98;;;;;;;5.52;78.12;102582.00;5039143;28;20095;-79
2022/01/23 17:45:52;;;;;;;14.95;9.38;;;;;;;5.48;78.18;102569.91;5028255;28;20079;-79
2022/01/23 17:51:59;;;;;;;;;;;;;;;5.32;78.23;102569.88;5016206;28;20052;-81
2022/01/23 17:55:06;;;;;;;17.30;10.65;;;;;;;5.08;78.57;102575.00;5027952;28;19928;-81
2022/01/23 17:58:39;;;;;;;18.38;11.18;;;;;;;5.38;78.65;102575.94;5026646;28;20136;-80
2022/01/23 18:01:46;;;;;;;45.28;28.05;;;;;;;5.46;78.80;102569.06;5030871;28;20049;-81
2022/01/23 18:05:06;;;;;;;21.92;13.57;;;;;;;5.52;78.41;102571.63;5018398;28;20047;-81
2022/01/23 18:08:13;;;;;;;26.20;15.10;;;;;;;5.45;78.89;102575.94;5033271;28;20261;-80
2022/01/23 18:11:19;;;;;;;31.13;17.33;;;;;;;5.43;78.84;102569.06;5031873;28;20055;-80
2022/01/23 18:14:24;;;;;;;13.05;8.18;;;;;;;5.41;79.09;102573.34;5030545;28;20040;-80
2022/01/23 18:17:49;;;;;;;35.05;20.90;;;;;;;5.10;79.78;102583.63;5032430;28;20095;-79
2022/01/23 18:20:57;;;;;;;38.10;25.42;;;;;;;5.02;79.00;102586.22;5031767;28;20811;-79